sensor_id;sensor_type;location;lat;lon;timestamp;temperature;humidity
10964;DHT22;5534;48.784;9.190;2023-04-25T00:01:40;12.00;99.90
10964;DHT22;5534;48.784;9.190;2023-04-25T00:04:06;12.30;99.90
10964;DHT22;5534;48.784;9.190;2023-04-25T00:06:34;12.10;99.90
10964;DHT22;5534;48.784;9.190;2023-04-25T00:09:05;12.10;99.90
10964;DHT22;5534;48.784;9.190;2023-04-25T00:11:35;12.10;99.90
10964;DHT22;5534;48.784;9.190;2023-04-25T00:14:02;12.10;99.90
10964;DHT22;5534;48.784;9.190;2023-04-25T00:16:29;12.20;99.90
10964;DHT22;5534;48.784;9.190;2023-04-25T00:18:56;12.10;99.90
10964;DHT22;5534;48.784;9.190;2023-04-25T00:21:22;12.10;99.90
10964;DHT22;5534;48.784;9.190;2023-04-25T00:23:52;12.10;99.90
10964;DHT22;5534;48.784;9.190;2023-04-25T00:26:17;12.10;99.90
10964;DHT22;5534;48.784;9.190;2023-04-25T00:28:43;12.10;99.90
10964;DHT22;5534;48.784;9.190;2023-04-25T00:31:09;12.20;99.90
10964;DHT22;5534;48.784;9.190;2023-04-25T00:33:35;12.20;99.90
10964;DHT22;5534;48.784;9.190;2023-04-25T00:36:01;12.10;99.90
10964;DHT22;5534;48.784;9.190;2023-04-25T00:38:27;12.10;99.90
10964;DHT22;5534;48.784;9.190;2023-04-25T00:40:53;12.00;99.90
10964;DHT22;5534;48.784;9.190;2023-04-25T00:43:19;12.10;99.90
10964;DHT22;5534;48.784;9.190;2023-04-25T00:45:47;12.10;99.90
10964;DHT22;5534;48.784;9.190;2023-04-25T00:48:14;12.20;99.90
10964;DHT22;5534;48.784;9.190;2023-04-25T00:50:40;12.10;99.90
10964;DHT22;5534;48.784;9.190;2023-04-25T00:53:06;12.10;99.90
10964;DHT22;5534;48.784;9.190;2023-04-25T00:55:32;12.10;99.90
10964;DHT22;5534;48.784;9.190;2023-04-25T00:58:00;12.10;99.90
10964;DHT22;5534;48.784;9.190;2023-04-25T01:00:25;12.20;99.90
10964;DHT22;5534;48.784;9.190;2023-04-25T01:02:52;12.10;99.90
10964;DHT22;5534;48.784;9.190;2023-04-25T01:05:17;12.10;99.90
10964;DHT22;5534;48.784;9.190;2023-04-25T01:07:44;12.10;99.90
10964;DHT22;5534;48.784;9.190;2023-04-25T01:10:11;12.00;99.90
10964;DHT22;5534;48.784;9.190;2023-04-25T01:12:37;12.10;99.90
10964;DHT22;5534;48.784;9.190;2023-04-25T01:15:03;12.10;99.90
10964;DHT22;5534;48.784;9.190;2023-04-25T01:17:29;12.00;99.90
10964;DHT22;5534;48.784;9.190;2023-04-25T01:19:55;12.00;99.90
10964;DHT22;5534;48.784;9.190;2023-04-25T01:22:21;12.00;99.90
10964;DHT22;5534;48.784;9.190;2023-04-25T01:24:47;12.00;99.90
10964;DHT22;5534;48.784;9.190;2023-04-25T01:27:13;12.10;99.90
10964;DHT22;5534;48.784;9.190;2023-04-25T01:29:39;12.10;99.90
10964;DHT22;5534;48.784;9.190;2023-04-25T01:32:06;12.10;99.90
10964;DHT22;5534;48.784;9.190;2023-04-25T01:34:32;12.00;99.90
10964;DHT22;5534;48.784;9.190;2023-04-25T01:36:59;11.90;99.90
10964;DHT22;5534;48.784;9.190;2023-04-25T01:39:26;12.00;99.90
10964;DHT22;5534;48.784;9.190;2023-04-25T01:41:52;12.00;99.90
10964;DHT22;5534;48.784;9.190;2023-04-25T01:44:17;11.90;99.90
10964;DHT22;5534;48.784;9.190;2023-04-25T01:46:43;11.90;99.90
10964;DHT22;5534;48.784;9.190;2023-04-25T01:49:10;12.00;99.90
10964;DHT22;5534;48.784;9.190;2023-04-25T01:51:38;12.00;99.90
10964;DHT22;5534;48.784;9.190;2023-04-25T01:54:04;12.00;99.90
10964;DHT22;5534;48.784;9.190;2023-04-25T01:56:34;12.00;99.90
10964;DHT22;5534;48.784;9.190;2023-04-25T01:59:04;12.00;99.90
10964;DHT22;5534;48.784;9.190;2023-04-25T02:01:31;12.00;99.90
10964;DHT22;5534;48.784;9.190;2023-04-25T02:03:57;11.90;99.90
10964;DHT22;5534;48.784;9.190;2023-04-25T02:06:23;11.90;99.90
10964;DHT22;5534;48.784;9.190;2023-04-25T02:08:49;11.90;99.90
10964;DHT22;5534;48.784;9.190;2023-04-25T02:11:14;12.00;99.90
10964;DHT22;5534;48.784;9.190;2023-04-25T02:13:40;11.90;99.90
10964;DHT22;5534;48.784;9.190;2023-04-25T02:16:06;12.00;99.90
10964;DHT22;5534;48.784;9.190;2023-04-25T02:18:32;12.00;99.90
10964;DHT22;5534;48.784;9.190;2023-04-25T02:21:01;12.00;99.90
10964;DHT22;5534;48.784;9.190;2023-04-25T02:23:28;11.90;99.90
10964;DHT22;5534;48.784;9.190;2023-04-25T02:25:54;11.90;99.90
10964;DHT22;5534;48.784;9.190;2023-04-25T02:28:21;11.90;99.90
10964;DHT22;5534;48.784;9.190;2023-04-25T02:30:47;11.80;99.90
10964;DHT22;5534;48.784;9.190;2023-04-25T02:33:12;11.60;99.90
10964;DHT22;5534;48.784;9.190;2023-04-25T02:35:40;11.70;99.90
10964;DHT22;5534;48.784;9.190;2023-04-25T02:38:07;11.80;99.90
10964;DHT22;5534;48.784;9.190;2023-04-25T02:40:32;11.80;99.90
10964;DHT22;5534;48.784;9.190;2023-04-25T02:42:58;11.80;99.90
10964;DHT22;5534;48.784;9.190;2023-04-25T02:45:24;11.70;99.90
10964;DHT22;5534;48.784;9.190;2023-04-25T02:47:50;11.70;99.90
10964;DHT22;5534;48.784;9.190;2023-04-25T02:50:15;11.70;99.90
10964;DHT22;5534;48.784;9.190;2023-04-25T02:52:41;11.80;99.90
10964;DHT22;5534;48.784;9.190;2023-04-25T02:55:07;11.80;99.90
10964;DHT22;5534;48.784;9.190;2023-04-25T02:57:33;11.80;99.90
10964;DHT22;5534;48.784;9.190;2023-04-25T02:59:58;11.80;99.90
10964;DHT22;5534;48.784;9.190;2023-04-25T03:02:24;11.70;99.90
10964;DHT22;5534;48.784;9.190;2023-04-25T03:04:50;11.80;99.90
10964;DHT22;5534;48.784;9.190;2023-04-25T03:07:16;11.80;99.90
10964;DHT22;5534;48.784;9.190;2023-04-25T03:09:41;11.70;99.90
10964;DHT22;5534;48.784;9.190;2023-04-25T03:12:07;11.80;99.90
10964;DHT22;5534;48.784;9.190;2023-04-25T03:14:33;11.70;99.90
10964;DHT22;5534;48.784;9.190;2023-04-25T03:16:59;11.70;99.90
10964;DHT22;5534;48.784;9.190;2023-04-25T03:19:24;11.70;99.90
10964;DHT22;5534;48.784;9.190;2023-04-25T03:21:50;11.70;99.90
10964;DHT22;5534;48.784;9.190;2023-04-25T03:24:16;11.70;99.90
10964;DHT22;5534;48.784;9.190;2023-04-25T03:26:41;11.70;99.90
10964;DHT22;5534;48.784;9.190;2023-04-25T03:29:08;11.60;99.90
10964;DHT22;5534;48.784;9.190;2023-04-25T03:31:33;11.80;99.90
10964;DHT22;5534;48.784;9.190;2023-04-25T03:33:59;11.60;99.90
10964;DHT22;5534;48.784;9.190;2023-04-25T03:36:25;11.60;99.90
10964;DHT22;5534;48.784;9.190;2023-04-25T03:38:50;11.60;99.90
10964;DHT22;5534;48.784;9.190;2023-04-25T03:41:16;11.60;99.90
10964;DHT22;5534;48.784;9.190;2023-04-25T03:43:42;11.60;99.90
10964;DHT22;5534;48.784;9.190;2023-04-25T03:46:08;11.60;99.90
10964;DHT22;5534;48.784;9.190;2023-04-25T03:48:33;11.70;99.90
10964;DHT22;5534;48.784;9.190;2023-04-25T03:50:59;11.80;99.90
10964;DHT22;5534;48.784;9.190;2023-04-25T03:53:25;11.50;99.90
10964;DHT22;5534;48.784;9.190;2023-04-25T03:55:51;11.60;99.90
10964;DHT22;5534;48.784;9.190;2023-04-25T03:58:17;11.60;99.90
10964;DHT22;5534;48.784;9.190;2023-04-25T04:00:43;11.60;99.90
10964;DHT22;5534;48.784;9.190;2023-04-25T04:03:08;11.90;99.90
10964;DHT22;5534;48.784;9.190;2023-04-25T04:05:34;11.60;99.90
10964;DHT22;5534;48.784;9.190;2023-04-25T04:08:00;11.50;99.90
10964;DHT22;5534;48.784;9.190;2023-04-25T04:10:26;11.50;99.90
10964;DHT22;5534;48.784;9.190;2023-04-25T04:12:51;11.60;99.90
10964;DHT22;5534;48.784;9.190;2023-04-25T04:15:17;11.50;99.90
10964;DHT22;5534;48.784;9.190;2023-04-25T04:17:43;11.60;99.90
10964;DHT22;5534;48.784;9.190;2023-04-25T04:20:09;11.50;99.90
10964;DHT22;5534;48.784;9.190;2023-04-25T04:22:35;11.50;99.90
10964;DHT22;5534;48.784;9.190;2023-04-25T04:25:01;11.50;99.90
10964;DHT22;5534;48.784;9.190;2023-04-25T04:27:28;11.50;99.90
10964;DHT22;5534;48.784;9.190;2023-04-25T04:29:54;11.50;99.90
10964;DHT22;5534;48.784;9.190;2023-04-25T04:32:20;11.50;99.90
10964;DHT22;5534;48.784;9.190;2023-04-25T04:34:46;11.50;99.90
10964;DHT22;5534;48.784;9.190;2023-04-25T04:37:12;11.60;99.90
10964;DHT22;5534;48.784;9.190;2023-04-25T04:39:38;11.60;99.90
10964;DHT22;5534;48.784;9.190;2023-04-25T04:42:04;11.50;99.90
10964;DHT22;5534;48.784;9.190;2023-04-25T04:44:30;11.50;99.90
10964;DHT22;5534;48.784;9.190;2023-04-25T04:47:01;11.60;99.90
10964;DHT22;5534;48.784;9.190;2023-04-25T04:49:27;11.60;99.90
10964;DHT22;5534;48.784;9.190;2023-04-25T04:51:53;11.60;99.90
10964;DHT22;5534;48.784;9.190;2023-04-25T04:54:20;11.60;99.90
10964;DHT22;5534;48.784;9.190;2023-04-25T04:56:45;11.60;99.90
10964;DHT22;5534;48.784;9.190;2023-04-25T04:59:11;11.60;99.90
10964;DHT22;5534;48.784;9.190;2023-04-25T05:01:37;11.70;99.90
10964;DHT22;5534;48.784;9.190;2023-04-25T05:04:03;11.60;99.90
10964;DHT22;5534;48.784;9.190;2023-04-25T05:06:29;11.70;99.90
10964;DHT22;5534;48.784;9.190;2023-04-25T05:08:57;11.70;99.90
10964;DHT22;5534;48.784;9.190;2023-04-25T05:11:24;11.70;99.90
10964;DHT22;5534;48.784;9.190;2023-04-25T05:13:53;11.70;99.90
10964;DHT22;5534;48.784;9.190;2023-04-25T05:16:19;11.70;99.90
10964;DHT22;5534;48.784;9.190;2023-04-25T05:18:46;11.70;99.90
10964;DHT22;5534;48.784;9.190;2023-04-25T05:21:12;11.70;99.90
10964;DHT22;5534;48.784;9.190;2023-04-25T05:23:38;11.60;99.90
10964;DHT22;5534;48.784;9.190;2023-04-25T05:26:04;11.70;99.90
10964;DHT22;5534;48.784;9.190;2023-04-25T05:28:30;11.80;99.90
10964;DHT22;5534;48.784;9.190;2023-04-25T05:30:56;11.70;99.90
10964;DHT22;5534;48.784;9.190;2023-04-25T05:33:23;11.60;99.90
10964;DHT22;5534;48.784;9.190;2023-04-25T05:35:49;11.70;99.90
10964;DHT22;5534;48.784;9.190;2023-04-25T05:38:15;11.30;99.90
10964;DHT22;5534;48.784;9.190;2023-04-25T05:40:41;11.40;99.90
10964;DHT22;5534;48.784;9.190;2023-04-25T05:43:07;11.50;99.90
10964;DHT22;5534;48.784;9.190;2023-04-25T05:45:33;11.50;99.90
10964;DHT22;5534;48.784;9.190;2023-04-25T05:47:58;11.50;99.90
10964;DHT22;5534;48.784;9.190;2023-04-25T05:50:24;11.50;99.90
10964;DHT22;5534;48.784;9.190;2023-04-25T05:52:51;11.50;99.90
10964;DHT22;5534;48.784;9.190;2023-04-25T05:55:17;11.40;99.90
10964;DHT22;5534;48.784;9.190;2023-04-25T05:57:43;11.40;99.90
10964;DHT22;5534;48.784;9.190;2023-04-25T06:00:12;11.40;99.90
10964;DHT22;5534;48.784;9.190;2023-04-25T06:02:38;11.30;99.90
10964;DHT22;5534;48.784;9.190;2023-04-25T06:05:04;11.40;99.90
10964;DHT22;5534;48.784;9.190;2023-04-25T06:07:30;11.20;99.90
10964;DHT22;5534;48.784;9.190;2023-04-25T06:09:56;11.20;99.90
10964;DHT22;5534;48.784;9.190;2023-04-25T06:12:22;11.50;99.90
10964;DHT22;5534;48.784;9.190;2023-04-25T06:14:52;11.50;99.90
10964;DHT22;5534;48.784;9.190;2023-04-25T06:17:18;11.60;99.90
10964;DHT22;5534;48.784;9.190;2023-04-25T06:19:43;11.60;99.90
10964;DHT22;5534;48.784;9.190;2023-04-25T06:22:10;11.80;99.90
10964;DHT22;5534;48.784;9.190;2023-04-25T06:24:36;11.70;99.90
10964;DHT22;5534;48.784;9.190;2023-04-25T06:27:01;11.70;99.90
10964;DHT22;5534;48.784;9.190;2023-04-25T06:29:27;11.70;99.90
10964;DHT22;5534;48.784;9.190;2023-04-25T06:31:53;11.70;99.90
10964;DHT22;5534;48.784;9.190;2023-04-25T06:34:18;11.80;99.90
10964;DHT22;5534;48.784;9.190;2023-04-25T06:36:44;11.90;99.90
10964;DHT22;5534;48.784;9.190;2023-04-25T06:39:10;11.90;99.90
10964;DHT22;5534;48.784;9.190;2023-04-25T06:41:36;11.70;99.90
10964;DHT22;5534;48.784;9.190;2023-04-25T06:44:02;11.50;99.90
10964;DHT22;5534;48.784;9.190;2023-04-25T06:46:28;11.60;99.90
10964;DHT22;5534;48.784;9.190;2023-04-25T06:48:56;11.70;99.90
10964;DHT22;5534;48.784;9.190;2023-04-25T06:51:25;11.80;99.90
10964;DHT22;5534;48.784;9.190;2023-04-25T06:53:53;11.80;99.90
10964;DHT22;5534;48.784;9.190;2023-04-25T06:56:19;11.90;99.90
10964;DHT22;5534;48.784;9.190;2023-04-25T06:58:47;11.90;99.90
10964;DHT22;5534;48.784;9.190;2023-04-25T07:01:16;12.00;99.90
10964;DHT22;5534;48.784;9.190;2023-04-25T07:03:42;12.00;99.90
10964;DHT22;5534;48.784;9.190;2023-04-25T07:06:08;12.00;99.90
10964;DHT22;5534;48.784;9.190;2023-04-25T07:08:34;11.90;99.90
10964;DHT22;5534;48.784;9.190;2023-04-25T07:10:59;11.90;99.90
10964;DHT22;5534;48.784;9.190;2023-04-25T07:13:25;11.90;99.90
10964;DHT22;5534;48.784;9.190;2023-04-25T07:15:51;11.90;99.90
10964;DHT22;5534;48.784;9.190;2023-04-25T07:18:17;11.90;99.90
10964;DHT22;5534;48.784;9.190;2023-04-25T07:20:43;11.80;99.90
10964;DHT22;5534;48.784;9.190;2023-04-25T07:23:10;11.70;99.90
10964;DHT22;5534;48.784;9.190;2023-04-25T07:25:35;11.80;99.90
10964;DHT22;5534;48.784;9.190;2023-04-25T07:28:01;11.90;99.90
10964;DHT22;5534;48.784;9.190;2023-04-25T07:30:28;11.90;99.90
10964;DHT22;5534;48.784;9.190;2023-04-25T07:32:54;11.90;99.90
10964;DHT22;5534;48.784;9.190;2023-04-25T07:35:21;11.90;99.90
10964;DHT22;5534;48.784;9.190;2023-04-25T07:37:46;11.90;99.90
10964;DHT22;5534;48.784;9.190;2023-04-25T07:40:12;11.80;99.90
10964;DHT22;5534;48.784;9.190;2023-04-25T07:42:38;11.60;99.90
10964;DHT22;5534;48.784;9.190;2023-04-25T07:45:06;11.60;99.90
10964;DHT22;5534;48.784;9.190;2023-04-25T07:47:31;11.70;99.90
10964;DHT22;5534;48.784;9.190;2023-04-25T07:49:57;11.70;99.90
10964;DHT22;5534;48.784;9.190;2023-04-25T07:52:23;11.80;99.90
10964;DHT22;5534;48.784;9.190;2023-04-25T07:54:49;11.50;99.90
10964;DHT22;5534;48.784;9.190;2023-04-25T07:57:15;11.70;99.90
10964;DHT22;5534;48.784;9.190;2023-04-25T07:59:42;11.70;99.90
10964;DHT22;5534;48.784;9.190;2023-04-25T08:02:08;11.70;99.90
10964;DHT22;5534;48.784;9.190;2023-04-25T08:04:34;11.60;99.90
10964;DHT22;5534;48.784;9.190;2023-04-25T08:07:00;11.60;99.90
10964;DHT22;5534;48.784;9.190;2023-04-25T08:09:26;11.60;99.90
10964;DHT22;5534;48.784;9.190;2023-04-25T08:11:52;11.60;99.90
10964;DHT22;5534;48.784;9.190;2023-04-25T08:14:17;11.60;99.90
10964;DHT22;5534;48.784;9.190;2023-04-25T08:16:43;11.60;99.90
10964;DHT22;5534;48.784;9.190;2023-04-25T08:19:09;11.60;99.90
10964;DHT22;5534;48.784;9.190;2023-04-25T08:21:36;11.60;99.90
10964;DHT22;5534;48.784;9.190;2023-04-25T08:24:02;11.60;99.90
10964;DHT22;5534;48.784;9.190;2023-04-25T08:26:28;11.60;99.90
10964;DHT22;5534;48.784;9.190;2023-04-25T08:28:54;11.50;99.90
10964;DHT22;5534;48.784;9.190;2023-04-25T08:31:20;11.50;99.90
10964;DHT22;5534;48.784;9.190;2023-04-25T08:33:46;11.60;99.90
10964;DHT22;5534;48.784;9.190;2023-04-25T08:36:13;11.60;99.90
10964;DHT22;5534;48.784;9.190;2023-04-25T08:38:39;11.60;99.90
10964;DHT22;5534;48.784;9.190;2023-04-25T08:41:06;11.50;99.90
10964;DHT22;5534;48.784;9.190;2023-04-25T08:43:32;11.50;99.90
10964;DHT22;5534;48.784;9.190;2023-04-25T08:45:59;11.40;99.90
10964;DHT22;5534;48.784;9.190;2023-04-25T08:48:32;11.20;99.90
10964;DHT22;5534;48.784;9.190;2023-04-25T08:50:58;11.30;99.90
10964;DHT22;5534;48.784;9.190;2023-04-25T08:53:29;11.40;99.90
10964;DHT22;5534;48.784;9.190;2023-04-25T08:55:57;11.60;99.90
10964;DHT22;5534;48.784;9.190;2023-04-25T08:58:23;11.50;99.90
10964;DHT22;5534;48.784;9.190;2023-04-25T09:00:50;11.40;99.90
10964;DHT22;5534;48.784;9.190;2023-04-25T09:03:17;11.40;99.90
10964;DHT22;5534;48.784;9.190;2023-04-25T09:05:43;11.30;99.90
10964;DHT22;5534;48.784;9.190;2023-04-25T09:08:09;11.20;99.90
10964;DHT22;5534;48.784;9.190;2023-04-25T09:10:36;11.20;99.90
10964;DHT22;5534;48.784;9.190;2023-04-25T09:13:07;11.40;99.90
10964;DHT22;5534;48.784;9.190;2023-04-25T09:15:50;11.40;99.90
10964;DHT22;5534;48.784;9.190;2023-04-25T09:18:30;11.50;99.90
10964;DHT22;5534;48.784;9.190;2023-04-25T09:21:09;11.40;99.90
10964;DHT22;5534;48.784;9.190;2023-04-25T09:23:43;11.20;99.90
10964;DHT22;5534;48.784;9.190;2023-04-25T09:26:09;11.20;99.90
10964;DHT22;5534;48.784;9.190;2023-04-25T09:28:36;11.10;99.90
10964;DHT22;5534;48.784;9.190;2023-04-25T09:31:03;11.10;99.90
10964;DHT22;5534;48.784;9.190;2023-04-25T09:33:31;11.20;99.90
10964;DHT22;5534;48.784;9.190;2023-04-25T09:36:08;11.20;99.90
10964;DHT22;5534;48.784;9.190;2023-04-25T09:38:43;11.30;99.90
10964;DHT22;5534;48.784;9.190;2023-04-25T09:41:10;11.30;99.90
10964;DHT22;5534;48.784;9.190;2023-04-25T09:43:36;11.30;99.90
10964;DHT22;5534;48.784;9.190;2023-04-25T09:46:03;11.20;99.90
10964;DHT22;5534;48.784;9.190;2023-04-25T09:48:32;11.20;99.90
10964;DHT22;5534;48.784;9.190;2023-04-25T09:51:12;11.10;99.90
10964;DHT22;5534;48.784;9.190;2023-04-25T09:53:43;11.10;99.90
10964;DHT22;5534;48.784;9.190;2023-04-25T09:56:10;11.00;99.90
10964;DHT22;5534;48.784;9.190;2023-04-25T09:58:39;11.10;99.90
10964;DHT22;5534;48.784;9.190;2023-04-25T10:01:06;11.10;99.90
10964;DHT22;5534;48.784;9.190;2023-04-25T10:03:37;11.10;99.90
10964;DHT22;5534;48.784;9.190;2023-04-25T10:06:17;11.10;99.90
10964;DHT22;5534;48.784;9.190;2023-04-25T10:08:44;11.10;99.90
10964;DHT22;5534;48.784;9.190;2023-04-25T10:11:12;10.80;99.90
10964;DHT22;5534;48.784;9.190;2023-04-25T10:13:41;10.60;99.90
10964;DHT22;5534;48.784;9.190;2023-04-25T10:16:08;10.60;99.90
10964;DHT22;5534;48.784;9.190;2023-04-25T10:18:34;10.70;99.90
10964;DHT22;5534;48.784;9.190;2023-04-25T10:21:01;10.60;99.90
10964;DHT22;5534;48.784;9.190;2023-04-25T10:23:30;10.40;99.90
10964;DHT22;5534;48.784;9.190;2023-04-25T10:25:57;10.30;99.90
10964;DHT22;5534;48.784;9.190;2023-04-25T10:28:23;10.30;99.90
10964;DHT22;5534;48.784;9.190;2023-04-25T10:31:07;10.50;99.90
10964;DHT22;5534;48.784;9.190;2023-04-25T10:36:12;10.60;99.90
10964;DHT22;5534;48.784;9.190;2023-04-25T10:38:39;10.50;99.90
10964;DHT22;5534;48.784;9.190;2023-04-25T10:41:08;10.60;99.90
10964;DHT22;5534;48.784;9.190;2023-04-25T10:43:37;10.50;99.90
10964;DHT22;5534;48.784;9.190;2023-04-25T10:46:22;10.40;99.90
10964;DHT22;5534;48.784;9.190;2023-04-25T10:48:52;10.50;99.90
10964;DHT22;5534;48.784;9.190;2023-04-25T10:51:22;10.50;99.90
10964;DHT22;5534;48.784;9.190;2023-04-25T10:56:21;10.30;99.90
10964;DHT22;5534;48.784;9.190;2023-04-25T10:58:48;10.30;99.90
10964;DHT22;5534;48.784;9.190;2023-04-25T11:01:19;10.30;99.90
10964;DHT22;5534;48.784;9.190;2023-04-25T11:03:45;10.30;99.90
10964;DHT22;5534;48.784;9.190;2023-04-25T11:06:23;10.30;99.90
10964;DHT22;5534;48.784;9.190;2023-04-25T11:08:50;10.30;99.90
10964;DHT22;5534;48.784;9.190;2023-04-25T11:11:17;10.10;99.90
10964;DHT22;5534;48.784;9.190;2023-04-25T11:13:43;10.10;99.90
10964;DHT22;5534;48.784;9.190;2023-04-25T11:16:09;10.10;99.90
10964;DHT22;5534;48.784;9.190;2023-04-25T11:18:35;10.10;99.90
10964;DHT22;5534;48.784;9.190;2023-04-25T11:21:03;10.20;99.90
10964;DHT22;5534;48.784;9.190;2023-04-25T11:23:30;10.20;99.90
10964;DHT22;5534;48.784;9.190;2023-04-25T11:25:56;10.10;99.90
10964;DHT22;5534;48.784;9.190;2023-04-25T11:28:22;10.30;99.90
10964;DHT22;5534;48.784;9.190;2023-04-25T11:30:49;10.40;99.90
10964;DHT22;5534;48.784;9.190;2023-04-25T11:33:17;10.50;99.90
10964;DHT22;5534;48.784;9.190;2023-04-25T11:35:43;10.50;99.90
10964;DHT22;5534;48.784;9.190;2023-04-25T11:38:10;10.60;99.90
10964;DHT22;5534;48.784;9.190;2023-04-25T11:40:36;10.70;99.90
10964;DHT22;5534;48.784;9.190;2023-04-25T11:43:02;10.70;99.90
10964;DHT22;5534;48.784;9.190;2023-04-25T11:45:28;10.70;99.90
10964;DHT22;5534;48.784;9.190;2023-04-25T11:47:56;10.80;99.90
10964;DHT22;5534;48.784;9.190;2023-04-25T11:50:28;11.00;99.90
10964;DHT22;5534;48.784;9.190;2023-04-25T11:52:56;10.90;99.90
10964;DHT22;5534;48.784;9.190;2023-04-25T11:55:22;11.00;99.90
10964;DHT22;5534;48.784;9.190;2023-04-25T11:57:49;11.00;99.90
10964;DHT22;5534;48.784;9.190;2023-04-25T12:00:18;10.90;99.90
10964;DHT22;5534;48.784;9.190;2023-04-25T12:02:47;10.90;99.90
10964;DHT22;5534;48.784;9.190;2023-04-25T12:05:16;10.80;99.90
10964;DHT22;5534;48.784;9.190;2023-04-25T12:07:43;10.90;99.90
10964;DHT22;5534;48.784;9.190;2023-04-25T12:10:14;11.20;99.90
10964;DHT22;5534;48.784;9.190;2023-04-25T12:12:47;11.20;99.90
10964;DHT22;5534;48.784;9.190;2023-04-25T12:15:18;11.30;99.90
10964;DHT22;5534;48.784;9.190;2023-04-25T12:17:48;11.50;99.90
10964;DHT22;5534;48.784;9.190;2023-04-25T12:20:16;11.40;99.90
10964;DHT22;5534;48.784;9.190;2023-04-25T12:22:44;11.30;99.90
10964;DHT22;5534;48.784;9.190;2023-04-25T12:25:33;11.30;99.90
10964;DHT22;5534;48.784;9.190;2023-04-25T12:28:29;11.30;99.90
10964;DHT22;5534;48.784;9.190;2023-04-25T12:31:06;11.10;99.90
10964;DHT22;5534;48.784;9.190;2023-04-25T12:33:34;11.20;99.90
10964;DHT22;5534;48.784;9.190;2023-04-25T12:36:00;11.10;99.90
10964;DHT22;5534;48.784;9.190;2023-04-25T12:38:36;11.00;99.90
10964;DHT22;5534;48.784;9.190;2023-04-25T12:41:02;10.90;99.90
10964;DHT22;5534;48.784;9.190;2023-04-25T12:43:28;11.00;99.90
10964;DHT22;5534;48.784;9.190;2023-04-25T12:45:55;11.10;99.90
10964;DHT22;5534;48.784;9.190;2023-04-25T12:48:21;11.10;99.90
10964;DHT22;5534;48.784;9.190;2023-04-25T12:50:48;11.10;99.90
10964;DHT22;5534;48.784;9.190;2023-04-25T12:53:18;11.30;99.90
10964;DHT22;5534;48.784;9.190;2023-04-25T12:55:45;11.40;99.90
10964;DHT22;5534;48.784;9.190;2023-04-25T12:58:16;11.60;99.90
10964;DHT22;5534;48.784;9.190;2023-04-25T13:00:43;11.70;99.90
10964;DHT22;5534;48.784;9.190;2023-04-25T13:03:09;11.90;99.90
10964;DHT22;5534;48.784;9.190;2023-04-25T13:05:37;11.90;99.90
10964;DHT22;5534;48.784;9.190;2023-04-25T13:08:03;12.10;99.90
10964;DHT22;5534;48.784;9.190;2023-04-25T13:10:29;12.00;99.90
10964;DHT22;5534;48.784;9.190;2023-04-25T13:12:55;12.00;99.90
10964;DHT22;5534;48.784;9.190;2023-04-25T13:15:21;12.10;99.90
10964;DHT22;5534;48.784;9.190;2023-04-25T13:17:47;12.20;99.90
10964;DHT22;5534;48.784;9.190;2023-04-25T13:20:13;12.20;99.90
10964;DHT22;5534;48.784;9.190;2023-04-25T13:22:40;12.10;99.90
10964;DHT22;5534;48.784;9.190;2023-04-25T13:25:08;12.00;99.90
10964;DHT22;5534;48.784;9.190;2023-04-25T13:27:36;12.10;99.90
10964;DHT22;5534;48.784;9.190;2023-04-25T13:30:03;12.00;99.90
10964;DHT22;5534;48.784;9.190;2023-04-25T13:32:36;12.10;99.90
10964;DHT22;5534;48.784;9.190;2023-04-25T13:35:07;12.10;99.90
10964;DHT22;5534;48.784;9.190;2023-04-25T13:37:34;12.20;99.90
10964;DHT22;5534;48.784;9.190;2023-04-25T13:40:08;12.30;99.90
10964;DHT22;5534;48.784;9.190;2023-04-25T13:42:36;12.20;99.90
10964;DHT22;5534;48.784;9.190;2023-04-25T13:45:02;12.30;99.90
10964;DHT22;5534;48.784;9.190;2023-04-25T13:47:28;12.20;99.90
10964;DHT22;5534;48.784;9.190;2023-04-25T13:49:56;12.30;99.90
10964;DHT22;5534;48.784;9.190;2023-04-25T13:52:22;12.10;99.90
10964;DHT22;5534;48.784;9.190;2023-04-25T13:54:49;12.10;99.90
10964;DHT22;5534;48.784;9.190;2023-04-25T13:57:16;12.30;99.90
10964;DHT22;5534;48.784;9.190;2023-04-25T13:59:42;12.40;99.90
10964;DHT22;5534;48.784;9.190;2023-04-25T14:02:08;12.50;99.90
10964;DHT22;5534;48.784;9.190;2023-04-25T14:04:36;12.60;99.90
10964;DHT22;5534;48.784;9.190;2023-04-25T14:07:03;12.60;99.90
10964;DHT22;5534;48.784;9.190;2023-04-25T14:09:29;12.60;99.90
10964;DHT22;5534;48.784;9.190;2023-04-25T14:11:55;12.60;99.90
10964;DHT22;5534;48.784;9.190;2023-04-25T14:14:22;12.60;99.90
10964;DHT22;5534;48.784;9.190;2023-04-25T14:16:49;12.50;99.90
10964;DHT22;5534;48.784;9.190;2023-04-25T14:19:16;12.40;99.90
10964;DHT22;5534;48.784;9.190;2023-04-25T14:21:43;12.40;99.90
10964;DHT22;5534;48.784;9.190;2023-04-25T14:24:09;12.50;99.90
10964;DHT22;5534;48.784;9.190;2023-04-25T14:26:36;12.90;99.90
10964;DHT22;5534;48.784;9.190;2023-04-25T14:29:03;12.80;99.90
10964;DHT22;5534;48.784;9.190;2023-04-25T14:31:29;13.00;99.90
10964;DHT22;5534;48.784;9.190;2023-04-25T14:33:55;13.20;99.90
10964;DHT22;5534;48.784;9.190;2023-04-25T14:36:21;13.30;99.90
10964;DHT22;5534;48.784;9.190;2023-04-25T14:38:47;13.20;99.90
10964;DHT22;5534;48.784;9.190;2023-04-25T14:41:12;13.10;99.90
10964;DHT22;5534;48.784;9.190;2023-04-25T14:43:38;13.20;99.90
10964;DHT22;5534;48.784;9.190;2023-04-25T14:46:06;13.00;99.90
10964;DHT22;5534;48.784;9.190;2023-04-25T14:48:32;13.10;99.90
10964;DHT22;5534;48.784;9.190;2023-04-25T14:50:59;13.10;99.90
10964;DHT22;5534;48.784;9.190;2023-04-25T14:53:26;13.10;99.90
10964;DHT22;5534;48.784;9.190;2023-04-25T14:55:52;13.00;99.90
10964;DHT22;5534;48.784;9.190;2023-04-25T14:58:18;12.90;99.90
10964;DHT22;5534;48.784;9.190;2023-04-25T15:00:44;12.80;99.90
10964;DHT22;5534;48.784;9.190;2023-04-25T15:03:10;12.90;99.90
10964;DHT22;5534;48.784;9.190;2023-04-25T15:05:41;12.90;99.90
10964;DHT22;5534;48.784;9.190;2023-04-25T15:08:07;13.00;99.90
10964;DHT22;5534;48.784;9.190;2023-04-25T15:10:34;12.90;99.90
10964;DHT22;5534;48.784;9.190;2023-04-25T15:13:00;12.80;99.90
10964;DHT22;5534;48.784;9.190;2023-04-25T15:15:26;12.60;99.90
10964;DHT22;5534;48.784;9.190;2023-04-25T15:17:52;12.50;99.90
10964;DHT22;5534;48.784;9.190;2023-04-25T15:20:19;12.50;99.90
10964;DHT22;5534;48.784;9.190;2023-04-25T15:22:45;12.50;99.90
10964;DHT22;5534;48.784;9.190;2023-04-25T15:25:11;12.60;99.90
10964;DHT22;5534;48.784;9.190;2023-04-25T15:27:38;12.70;99.90
10964;DHT22;5534;48.784;9.190;2023-04-25T15:30:08;12.70;99.90
10964;DHT22;5534;48.784;9.190;2023-04-25T15:32:37;12.70;99.90
10964;DHT22;5534;48.784;9.190;2023-04-25T15:35:06;12.60;99.90
10964;DHT22;5534;48.784;9.190;2023-04-25T15:37:33;12.70;99.90
10964;DHT22;5534;48.784;9.190;2023-04-25T15:40:08;12.70;99.90
10964;DHT22;5534;48.784;9.190;2023-04-25T15:42:39;12.70;99.90
10964;DHT22;5534;48.784;9.190;2023-04-25T15:45:07;12.70;99.90
10964;DHT22;5534;48.784;9.190;2023-04-25T15:47:34;12.80;99.90
10964;DHT22;5534;48.784;9.190;2023-04-25T15:50:01;12.80;99.90